createdAt,value
2023-04-08T00:00:25.910Z,1686
2023-04-08T00:05:44.134Z,1687
2023-04-08T00:11:02.458Z,1693
2023-04-08T00:16:20.630Z,1699
2023-04-08T00:21:38.948Z,1708
2023-04-08T00:26:57.555Z,1718
2023-04-08T00:32:15.930Z,1723
2023-04-08T00:37:34.462Z,1731
2023-04-08T00:42:52.870Z,1736
2023-04-08T00:48:11.161Z,1739
2023-04-08T00:53:29.169Z,1738
2023-04-08T00:58:47.551Z,1736
2023-04-08T01:04:06.639Z,1734
2023-04-08T01:09:25.212Z,1731
2023-04-08T01:14:43.835Z,1731
2023-04-08T01:20:02.038Z,1743
2023-04-08T01:25:20.456Z,1742
2023-04-08T01:30:38.984Z,1739
2023-04-08T01:35:57.174Z,1758
2023-04-08T01:41:15.548Z,1750
2023-04-08T01:46:33.934Z,1762
2023-04-08T01:51:52.189Z,1757
2023-04-08T01:57:10.387Z,1755
2023-04-08T02:02:29.029Z,1757
2023-04-08T02:07:47.682Z,1753
2023-04-08T02:13:06.193Z,1751
2023-04-08T02:18:24.623Z,1807
2023-04-08T02:23:42.802Z,1791
2023-04-08T02:29:01.628Z,1765
2023-04-08T02:34:20.176Z,1758
2023-04-08T02:39:38.383Z,1764
2023-04-08T02:44:56.772Z,1758
2023-04-08T02:50:14.932Z,1773
2023-04-08T02:55:33.520Z,1773
2023-04-08T03:00:51.947Z,1773
2023-04-08T03:06:10.364Z,1780
2023-04-08T03:11:28.741Z,1790
2023-04-08T03:16:46.936Z,1789
2023-04-08T03:22:05.125Z,1792
2023-04-08T03:27:26.460Z,1796
2023-04-08T03:32:44.919Z,1804
2023-04-08T03:38:03.371Z,1806
2023-04-08T03:43:21.736Z,1819
2023-04-08T03:48:40.123Z,1823
2023-04-08T03:53:58.302Z,1824
2023-04-08T03:59:16.486Z,1846
2023-04-08T04:04:34.742Z,1850
2023-04-08T04:09:53.142Z,1852
2023-04-08T04:15:11.519Z,1856
2023-04-08T04:20:30.059Z,1846
2023-04-08T04:25:48.386Z,1842
2023-04-08T04:31:06.901Z,1851
2023-04-08T04:36:25.702Z,1839
2023-04-08T04:41:44.051Z,1850
2023-04-08T04:47:02.655Z,1858
2023-04-08T04:52:20.726Z,1835
2023-04-08T04:57:39.095Z,1828
2023-04-08T05:02:57.290Z,1849
2023-04-08T05:08:15.802Z,1844
2023-04-08T05:13:33.918Z,1844
2023-04-08T05:18:52.512Z,1853
2023-04-08T05:24:11.271Z,1860
2023-04-08T05:29:29.622Z,1868
2023-04-08T05:34:48.530Z,1864
2023-04-08T05:40:06.652Z,1848
2023-04-08T05:45:25.040Z,1832
2023-04-08T05:50:43.262Z,1815
2023-04-08T05:56:02.973Z,1808
2023-04-08T06:01:21.458Z,1795
2023-04-08T06:06:42.893Z,1778
2023-04-08T06:12:01.368Z,1760
2023-04-08T06:17:19.904Z,1744
2023-04-08T06:22:38.130Z,1421
2023-04-08T06:27:56.828Z,1452
2023-04-08T06:33:15.416Z,1523
2023-04-08T06:38:18.178Z,1555
2023-04-08T06:43:36.611Z,1528
2023-04-08T06:48:55.550Z,1518
2023-04-08T06:54:13.901Z,1507
2023-04-08T06:59:32.093Z,1498
2023-04-08T07:04:50.428Z,1028
2023-04-08T07:10:11.024Z,963
2023-04-08T07:15:29.777Z,1048
2023-04-08T07:20:48.280Z,1087
2023-04-08T07:26:06.889Z,1147
2023-04-08T07:31:25.055Z,1211
2023-04-08T07:36:43.840Z,1292
2023-04-08T07:42:02.393Z,1300
2023-04-08T07:47:05.178Z,1308
2023-04-08T07:52:23.837Z,1311
2023-04-08T07:57:42.444Z,1306
2023-04-08T08:03:01.211Z,1302
2023-04-08T08:08:20.981Z,1304
2023-04-08T08:13:40.250Z,1302
2023-04-08T08:18:58.357Z,1299
2023-04-08T08:24:17.089Z,987
2023-04-08T08:29:35.330Z,1062
2023-04-08T08:34:54.046Z,1119
2023-04-08T08:40:12.193Z,1160
2023-04-08T08:45:30.632Z,1179
2023-04-08T08:50:48.852Z,1184
2023-04-08T08:56:17.609Z,1192
2023-04-08T09:01:37.493Z,1201
2023-04-08T09:06:56.947Z,1205
2023-04-08T09:12:17.010Z,1214
2023-04-08T09:17:36.805Z,1220
2023-04-08T09:22:54.996Z,1223
2023-04-08T09:28:13.249Z,1229
2023-04-08T09:33:15.978Z,1235
2023-04-08T09:38:33.993Z,1250
2023-04-08T09:43:52.760Z,1264
2023-04-08T09:49:11.454Z,1257
2023-04-08T09:54:29.815Z,1254
2023-04-08T09:59:48.163Z,1296
2023-04-08T10:05:08.248Z,1351
2023-04-08T10:10:26.940Z,1364
2023-04-08T10:15:45.377Z,1327
2023-04-08T10:21:03.732Z,1288
2023-04-08T10:26:22.077Z,1273
2023-04-08T10:31:40.477Z,1280
2023-04-08T10:36:43.069Z,1288
2023-04-08T10:41:45.884Z,1300
2023-04-08T10:47:04.381Z,1311
2023-04-08T10:52:22.471Z,1325
2023-04-08T10:57:40.640Z,1334
2023-04-08T11:02:58.800Z,1330
2023-04-08T11:08:18.925Z,1338
2023-04-08T11:13:39.158Z,1338
2023-04-08T11:18:57.229Z,1340
2023-04-08T11:24:15.587Z,1347
2023-04-08T11:29:33.827Z,1387
2023-04-08T11:34:52.009Z,1373
2023-04-08T11:40:10.241Z,1362
2023-04-08T11:45:28.610Z,1343
2023-04-08T11:50:46.818Z,1315
2023-04-08T11:56:05.040Z,1302
2023-04-08T12:01:23.367Z,1300
2023-04-08T12:06:41.921Z,1299
2023-04-08T12:12:00.074Z,1297
2023-04-08T12:17:19.626Z,1300
2023-04-08T12:22:38.159Z,1288
2023-04-08T12:27:56.571Z,1282
2023-04-08T12:33:14.918Z,1276
2023-04-08T12:38:33.187Z,1270
2023-04-08T12:43:51.347Z,1280
2023-04-08T12:49:09.719Z,1267
2023-04-08T12:54:28.055Z,1271
2023-04-08T12:59:46.268Z,1260
2023-04-08T13:05:04.453Z,1254
2023-04-08T13:10:22.829Z,1252
2023-04-08T13:15:41.200Z,1265
2023-04-08T13:20:59.205Z,1280
2023-04-08T13:26:17.592Z,1323
2023-04-08T13:31:36.227Z,1362
2023-04-08T13:36:54.477Z,1381
2023-04-08T13:42:12.840Z,1402
2023-04-08T13:47:15.379Z,1388
2023-04-08T13:52:34.015Z,1393
2023-04-08T13:57:52.486Z,1375
2023-04-08T14:03:11.143Z,1355
2023-04-08T14:08:29.454Z,1352
2023-04-08T14:13:47.821Z,1346
2023-04-08T14:19:06.282Z,1326
2023-04-08T14:24:25.024Z,1319
2023-04-08T14:29:43.533Z,1305
2023-04-08T14:35:02.118Z,1279
2023-04-08T14:40:20.794Z,1251
2023-04-08T14:45:39.011Z,1250
2023-04-08T14:50:57.379Z,1246
2023-04-08T14:56:15.781Z,1256
2023-04-08T15:01:34.417Z,1253
2023-04-08T15:06:52.764Z,1253
2023-04-08T15:12:12.063Z,1253
2023-04-08T15:17:31.860Z,1252
2023-04-08T15:22:50.125Z,1247
2023-04-08T15:28:08.516Z,1239
2023-04-08T15:33:26.965Z,1245
2023-04-08T15:38:45.218Z,1242
2023-04-08T15:44:03.426Z,1245
2023-04-08T15:49:21.679Z,1254
2023-04-08T15:54:40.546Z,1254
2023-04-08T15:59:59.090Z,1251
2023-04-08T16:05:18.339Z,1255
2023-04-08T16:10:36.721Z,1251
2023-04-08T16:15:55.555Z,1253
2023-04-08T16:21:14.149Z,1247
2023-04-08T16:26:32.699Z,1247
2023-04-08T16:31:52.227Z,1255
2023-04-08T16:37:14.414Z,1262
2023-04-08T16:42:33.667Z,1270
2023-04-08T16:47:51.943Z,1271
2023-04-08T16:53:10.688Z,1283
2023-04-08T16:58:28.851Z,1281
2023-04-08T17:03:47.387Z,1313
2023-04-08T17:09:05.901Z,1339
2023-04-08T17:14:24.074Z,1368
2023-04-08T17:19:42.619Z,1403
2023-04-08T17:25:01.200Z,1426
2023-04-08T17:30:22.795Z,1432
2023-04-08T17:35:43.877Z,1442
2023-04-08T17:41:02.046Z,1143
2023-04-08T17:46:20.471Z,1207
2023-04-08T17:51:38.742Z,1256
2023-04-08T17:56:57.270Z,1272
2023-04-08T18:02:15.286Z,1274
2023-04-08T18:07:34.023Z,1277
2023-04-08T18:12:57.719Z,1292
2023-04-08T18:18:29.953Z,1299
2023-04-08T18:23:48.339Z,1312
2023-04-08T18:29:07.718Z,1326
2023-04-08T18:34:25.946Z,1330
2023-04-08T18:39:44.294Z,1345
2023-04-08T18:45:02.406Z,1376
2023-04-08T18:50:20.811Z,1381
2023-04-08T18:55:39.030Z,1401
2023-04-08T19:00:57.164Z,1406
2023-04-08T19:06:15.733Z,1428
2023-04-08T19:11:33.850Z,1449
2023-04-08T19:16:52.272Z,1489
2023-04-08T19:22:10.988Z,1490
2023-04-08T19:27:29.165Z,1507
2023-04-08T19:32:47.193Z,1510
2023-04-08T19:38:06.037Z,1506
2023-04-08T19:43:24.140Z,1519
2023-04-08T19:48:42.519Z,1521
2023-04-08T19:54:00.746Z,1515
2023-04-08T19:59:19.268Z,1517
2023-04-08T20:04:37.950Z,1531
2023-04-08T20:09:56.382Z,1542
2023-04-08T20:15:23.984Z,1538
2023-04-08T20:20:43.637Z,1541
2023-04-08T20:26:03.098Z,1541
2023-04-08T20:31:21.294Z,1556
2023-04-08T20:36:39.715Z,1554
2023-04-08T20:41:58.294Z,1554
2023-04-08T20:47:16.277Z,1558
2023-04-08T20:52:34.618Z,1488
2023-04-08T20:57:53.257Z,1389
2023-04-08T21:03:11.739Z,1404
2023-04-08T21:08:30.232Z,1449
2023-04-08T21:13:49.169Z,1474
2023-04-08T21:19:07.466Z,1507
2023-04-08T21:24:25.882Z,1575
2023-04-08T21:29:44.384Z,1570
2023-04-08T21:35:02.603Z,1581
2023-04-08T21:40:21.228Z,1610
2023-04-08T21:45:39.431Z,1634
2023-04-08T21:50:57.782Z,1661
2023-04-08T21:56:15.904Z,1666
2023-04-08T22:01:34.086Z,1676
2023-04-08T22:06:53.018Z,1677
2023-04-08T22:12:11.572Z,1677
2023-04-08T22:17:30.151Z,1687
2023-04-08T22:22:48.452Z,1698
2023-04-08T22:28:06.809Z,1698
2023-04-08T22:33:25.147Z,1686
2023-04-08T22:38:43.336Z,1681
2023-04-08T22:44:01.679Z,1684
2023-04-08T22:49:20.255Z,1677
2023-04-08T22:54:38.516Z,1673
2023-04-08T22:59:57.052Z,1675
2023-04-08T23:05:15.578Z,1679
2023-04-08T23:10:34.012Z,1683
2023-04-08T23:15:52.637Z,1681
2023-04-08T23:21:10.879Z,1678
2023-04-08T23:26:29.084Z,1685
2023-04-08T23:31:47.210Z,1687
2023-04-08T23:37:05.419Z,1684
2023-04-08T23:42:23.699Z,1678
2023-04-08T23:47:41.954Z,1681
2023-04-08T23:53:00.289Z,1676
2023-04-08T23:58:18.672Z,1673
